sensor_id;sensor_type;location;lat;lon;timestamp;temperature;humidity
29777;DHT22;16677;52.224;7.484;2024-01-15T00:00:34;2.70;99.90
29777;DHT22;16677;52.224;7.484;2024-01-15T00:03:01;2.60;99.90
29777;DHT22;16677;52.224;7.484;2024-01-15T00:05:28;2.60;99.90
29777;DHT22;16677;52.224;7.484;2024-01-15T00:07:55;2.50;99.90
29777;DHT22;16677;52.224;7.484;2024-01-15T00:10:24;2.50;99.90
29777;DHT22;16677;52.224;7.484;2024-01-15T00:12:51;2.50;99.90
29777;DHT22;16677;52.224;7.484;2024-01-15T00:15:18;2.40;99.90
29777;DHT22;16677;52.224;7.484;2024-01-15T00:17:45;2.30;99.90
29777;DHT22;16677;52.224;7.484;2024-01-15T00:20:12;2.30;99.90
29777;DHT22;16677;52.224;7.484;2024-01-15T00:22:39;2.30;99.90
29777;DHT22;16677;52.224;7.484;2024-01-15T00:25:08;2.20;99.90
29777;DHT22;16677;52.224;7.484;2024-01-15T00:27:35;2.20;99.90
29777;DHT22;16677;52.224;7.484;2024-01-15T00:30:02;2.20;99.90
29777;DHT22;16677;52.224;7.484;2024-01-15T00:32:31;2.20;99.90
29777;DHT22;16677;52.224;7.484;2024-01-15T00:34:58;2.20;99.90
29777;DHT22;16677;52.224;7.484;2024-01-15T00:37:25;2.10;99.90
29777;DHT22;16677;52.224;7.484;2024-01-15T00:40:04;2.20;99.90
29777;DHT22;16677;52.224;7.484;2024-01-15T00:42:31;2.20;99.90
29777;DHT22;16677;52.224;7.484;2024-01-15T00:44:58;2.10;99.90
29777;DHT22;16677;52.224;7.484;2024-01-15T00:47:27;2.10;99.90
29777;DHT22;16677;52.224;7.484;2024-01-15T00:49:54;2.10;99.90
29777;DHT22;16677;52.224;7.484;2024-01-15T00:52:23;2.10;99.90
29777;DHT22;16677;52.224;7.484;2024-01-15T00:54:50;2.10;99.90
29777;DHT22;16677;52.224;7.484;2024-01-15T00:57:17;2.00;99.90
29777;DHT22;16677;52.224;7.484;2024-01-15T00:59:46;2.10;99.90
29777;DHT22;16677;52.224;7.484;2024-01-15T01:02:13;2.10;99.90
29777;DHT22;16677;52.224;7.484;2024-01-15T01:04:40;2.10;99.90
29777;DHT22;16677;52.224;7.484;2024-01-15T01:07:07;2.10;99.90
29777;DHT22;16677;52.224;7.484;2024-01-15T01:09:34;2.00;99.90
29777;DHT22;16677;52.224;7.484;2024-01-15T01:12:01;2.10;99.90
29777;DHT22;16677;52.224;7.484;2024-01-15T01:14:30;2.10;99.90
29777;DHT22;16677;52.224;7.484;2024-01-15T01:16:57;2.00;99.90
29777;DHT22;16677;52.224;7.484;2024-01-15T01:19:24;2.00;99.90
29777;DHT22;16677;52.224;7.484;2024-01-15T01:21:52;2.00;99.90
29777;DHT22;16677;52.224;7.484;2024-01-15T01:24:19;2.00;99.90
29777;DHT22;16677;52.224;7.484;2024-01-15T01:26:46;2.00;99.90
29777;DHT22;16677;52.224;7.484;2024-01-15T01:29:13;2.00;99.90
29777;DHT22;16677;52.224;7.484;2024-01-15T01:31:43;2.00;99.90
29777;DHT22;16677;52.224;7.484;2024-01-15T01:34:14;2.00;99.90
29777;DHT22;16677;52.224;7.484;2024-01-15T01:36:44;2.10;99.90
29777;DHT22;16677;52.224;7.484;2024-01-15T01:39:11;2.10;95.00
29777;DHT22;16677;52.224;7.484;2024-01-15T01:41:38;2.00;99.90
29777;DHT22;16677;52.224;7.484;2024-01-15T01:44:06;1.90;99.90
29777;DHT22;16677;52.224;7.484;2024-01-15T01:46:34;1.80;99.90
29777;DHT22;16677;52.224;7.484;2024-01-15T01:49:06;1.90;99.90
29777;DHT22;16677;52.224;7.484;2024-01-15T01:51:34;1.80;99.90
29777;DHT22;16677;52.224;7.484;2024-01-15T01:54:01;1.90;99.90
29777;DHT22;16677;52.224;7.484;2024-01-15T01:56:31;1.90;99.90
29777;DHT22;16677;52.224;7.484;2024-01-15T01:58:59;1.80;99.90
29777;DHT22;16677;52.224;7.484;2024-01-15T02:01:26;1.80;99.90
29777;DHT22;16677;52.224;7.484;2024-01-15T02:03:53;1.80;99.90
29777;DHT22;16677;52.224;7.484;2024-01-15T02:06:23;1.80;99.90
29777;DHT22;16677;52.224;7.484;2024-01-15T02:08:50;1.80;99.90
29777;DHT22;16677;52.224;7.484;2024-01-15T02:11:17;1.80;92.90
29777;DHT22;16677;52.224;7.484;2024-01-15T02:13:44;1.80;94.00
29777;DHT22;16677;52.224;7.484;2024-01-15T02:16:11;1.80;94.00
29777;DHT22;16677;52.224;7.484;2024-01-15T02:18:44;1.80;99.90
29777;DHT22;16677;52.224;7.484;2024-01-15T02:21:11;1.90;97.40
29777;DHT22;16677;52.224;7.484;2024-01-15T02:23:39;1.90;99.90
29777;DHT22;16677;52.224;7.484;2024-01-15T02:26:05;2.00;91.20
29777;DHT22;16677;52.224;7.484;2024-01-15T02:28:33;2.00;71.70
29777;DHT22;16677;52.224;7.484;2024-01-15T02:31:00;2.00;72.30
29777;DHT22;16677;52.224;7.484;2024-01-15T02:33:27;1.90;40.80
29777;DHT22;16677;52.224;7.484;2024-01-15T02:35:54;2.00;88.50
29777;DHT22;16677;52.224;7.484;2024-01-15T02:38:21;1.90;64.60
29777;DHT22;16677;52.224;7.484;2024-01-15T02:40:49;1.90;61.70
29777;DHT22;16677;52.224;7.484;2024-01-15T02:43:16;2.00;29.20
29777;DHT22;16677;52.224;7.484;2024-01-15T02:45:43;2.00;28.00
29777;DHT22;16677;52.224;7.484;2024-01-15T02:48:10;2.10;15.40
29777;DHT22;16677;52.224;7.484;2024-01-15T02:50:38;2.10;1.00
29777;DHT22;16677;52.224;7.484;2024-01-15T02:53:05;2.10;2.20
29777;DHT22;16677;52.224;7.484;2024-01-15T02:55:32;2.20;1.00
29777;DHT22;16677;52.224;7.484;2024-01-15T02:57:59;2.20;1.00
29777;DHT22;16677;52.224;7.484;2024-01-15T03:00:26;2.30;1.00
29777;DHT22;16677;52.224;7.484;2024-01-15T03:02:52;2.20;1.00
29777;DHT22;16677;52.224;7.484;2024-01-15T03:05:19;2.30;1.00
29777;DHT22;16677;52.224;7.484;2024-01-15T03:07:46;2.30;1.00
29777;DHT22;16677;52.224;7.484;2024-01-15T03:10:14;2.30;1.00
29777;DHT22;16677;52.224;7.484;2024-01-15T03:12:41;2.30;1.00
29777;DHT22;16677;52.224;7.484;2024-01-15T03:15:08;2.30;1.00
29777;DHT22;16677;52.224;7.484;2024-01-15T03:17:35;2.30;17.50
29777;DHT22;16677;52.224;7.484;2024-01-15T03:20:02;2.30;21.70
29777;DHT22;16677;52.224;7.484;2024-01-15T03:22:30;2.30;14.30
29777;DHT22;16677;52.224;7.484;2024-01-15T03:24:56;2.20;88.60
29777;DHT22;16677;52.224;7.484;2024-01-15T03:27:23;2.20;56.90
29777;DHT22;16677;52.224;7.484;2024-01-15T03:29:50;2.10;93.20
29777;DHT22;16677;52.224;7.484;2024-01-15T03:32:17;2.10;99.90
29777;DHT22;16677;52.224;7.484;2024-01-15T03:34:46;2.10;99.90
29777;DHT22;16677;52.224;7.484;2024-01-15T03:37:14;2.00;99.60
29777;DHT22;16677;52.224;7.484;2024-01-15T03:39:41;2.00;99.90
29777;DHT22;16677;52.224;7.484;2024-01-15T03:42:08;2.10;99.90
29777;DHT22;16677;52.224;7.484;2024-01-15T03:44:35;2.10;99.90
29777;DHT22;16677;52.224;7.484;2024-01-15T03:47:02;2.10;99.90
29777;DHT22;16677;52.224;7.484;2024-01-15T03:49:28;2.10;99.90
29777;DHT22;16677;52.224;7.484;2024-01-15T03:51:55;2.00;99.90
29777;DHT22;16677;52.224;7.484;2024-01-15T03:54:22;1.90;99.90
29777;DHT22;16677;52.224;7.484;2024-01-15T03:56:49;1.80;99.90
29777;DHT22;16677;52.224;7.484;2024-01-15T03:59:16;1.80;99.90
29777;DHT22;16677;52.224;7.484;2024-01-15T04:01:48;1.80;99.90
29777;DHT22;16677;52.224;7.484;2024-01-15T04:04:15;1.80;99.90
29777;DHT22;16677;52.224;7.484;2024-01-15T04:06:43;1.80;99.90
29777;DHT22;16677;52.224;7.484;2024-01-15T04:09:11;1.70;99.90
29777;DHT22;16677;52.224;7.484;2024-01-15T04:11:38;1.80;99.90
29777;DHT22;16677;52.224;7.484;2024-01-15T04:14:05;1.80;99.90
29777;DHT22;16677;52.224;7.484;2024-01-15T04:16:32;1.80;99.90
29777;DHT22;16677;52.224;7.484;2024-01-15T04:18:59;1.70;99.90
29777;DHT22;16677;52.224;7.484;2024-01-15T04:21:26;1.80;99.90
29777;DHT22;16677;52.224;7.484;2024-01-15T04:23:53;1.80;99.90
29777;DHT22;16677;52.224;7.484;2024-01-15T04:26:19;1.80;99.90
29777;DHT22;16677;52.224;7.484;2024-01-15T04:28:46;1.80;99.90
29777;DHT22;16677;52.224;7.484;2024-01-15T04:31:25;1.80;99.90
29777;DHT22;16677;52.224;7.484;2024-01-15T04:33:54;1.90;99.90
29777;DHT22;16677;52.224;7.484;2024-01-15T04:36:21;1.80;99.90
29777;DHT22;16677;52.224;7.484;2024-01-15T04:38:48;1.80;99.90
29777;DHT22;16677;52.224;7.484;2024-01-15T04:41:16;1.70;99.90
29777;DHT22;16677;52.224;7.484;2024-01-15T04:43:43;1.70;99.90
29777;DHT22;16677;52.224;7.484;2024-01-15T04:46:10;1.70;99.90
29777;DHT22;16677;52.224;7.484;2024-01-15T04:48:37;1.70;99.90
29777;DHT22;16677;52.224;7.484;2024-01-15T04:51:04;1.60;99.90
29777;DHT22;16677;52.224;7.484;2024-01-15T04:53:32;1.60;99.90
29777;DHT22;16677;52.224;7.484;2024-01-15T04:55:59;1.60;99.90
29777;DHT22;16677;52.224;7.484;2024-01-15T04:58:26;1.60;99.90
29777;DHT22;16677;52.224;7.484;2024-01-15T05:00:54;1.60;99.90
29777;DHT22;16677;52.224;7.484;2024-01-15T05:03:21;1.50;99.90
29777;DHT22;16677;52.224;7.484;2024-01-15T05:05:48;1.50;99.90
29777;DHT22;16677;52.224;7.484;2024-01-15T05:08:15;1.60;99.90
29777;DHT22;16677;52.224;7.484;2024-01-15T05:10:42;1.60;99.90
29777;DHT22;16677;52.224;7.484;2024-01-15T05:13:09;1.60;99.90
29777;DHT22;16677;52.224;7.484;2024-01-15T05:15:35;1.60;99.90
29777;DHT22;16677;52.224;7.484;2024-01-15T05:18:02;1.60;99.90
29777;DHT22;16677;52.224;7.484;2024-01-15T05:20:29;1.60;99.90
29777;DHT22;16677;52.224;7.484;2024-01-15T05:22:56;1.60;99.90
29777;DHT22;16677;52.224;7.484;2024-01-15T05:25:23;1.60;99.90
29777;DHT22;16677;52.224;7.484;2024-01-15T05:27:50;1.60;99.90
29777;DHT22;16677;52.224;7.484;2024-01-15T05:30:17;1.60;99.90
29777;DHT22;16677;52.224;7.484;2024-01-15T05:32:44;1.60;99.90
29777;DHT22;16677;52.224;7.484;2024-01-15T05:35:11;1.70;99.90
29777;DHT22;16677;52.224;7.484;2024-01-15T05:37:40;1.70;99.90
29777;DHT22;16677;52.224;7.484;2024-01-15T05:40:06;1.70;99.90
29777;DHT22;16677;52.224;7.484;2024-01-15T05:42:33;1.70;99.90
29777;DHT22;16677;52.224;7.484;2024-01-15T05:45:00;1.80;99.90
29777;DHT22;16677;52.224;7.484;2024-01-15T05:47:30;1.70;99.90
29777;DHT22;16677;52.224;7.484;2024-01-15T05:49:57;1.80;99.90
29777;DHT22;16677;52.224;7.484;2024-01-15T05:52:24;1.80;99.90
29777;DHT22;16677;52.224;7.484;2024-01-15T05:54:51;1.80;99.90
29777;DHT22;16677;52.224;7.484;2024-01-15T05:57:18;1.80;99.90
29777;DHT22;16677;52.224;7.484;2024-01-15T05:59:45;1.80;99.90
29777;DHT22;16677;52.224;7.484;2024-01-15T06:02:12;1.80;99.90
29777;DHT22;16677;52.224;7.484;2024-01-15T06:04:39;1.80;99.90
29777;DHT22;16677;52.224;7.484;2024-01-15T06:07:05;1.80;99.90
29777;DHT22;16677;52.224;7.484;2024-01-15T06:09:32;1.90;99.90
29777;DHT22;16677;52.224;7.484;2024-01-15T06:11:59;1.90;99.90
29777;DHT22;16677;52.224;7.484;2024-01-15T06:14:26;1.80;99.90
29777;DHT22;16677;52.224;7.484;2024-01-15T06:16:53;1.90;99.90
29777;DHT22;16677;52.224;7.484;2024-01-15T06:19:20;1.90;99.90
29777;DHT22;16677;52.224;7.484;2024-01-15T06:21:47;1.90;99.90
29777;DHT22;16677;52.224;7.484;2024-01-15T06:24:14;1.90;99.90
29777;DHT22;16677;52.224;7.484;2024-01-15T06:26:41;1.90;99.90
29777;DHT22;16677;52.224;7.484;2024-01-15T06:29:08;1.90;99.90
29777;DHT22;16677;52.224;7.484;2024-01-15T06:31:35;1.90;99.90
29777;DHT22;16677;52.224;7.484;2024-01-15T06:34:02;1.90;99.90
29777;DHT22;16677;52.224;7.484;2024-01-15T06:36:29;1.80;99.90
29777;DHT22;16677;52.224;7.484;2024-01-15T06:38:56;1.80;99.90
29777;DHT22;16677;52.224;7.484;2024-01-15T06:41:23;1.80;99.90
29777;DHT22;16677;52.224;7.484;2024-01-15T06:43:51;1.80;99.90
29777;DHT22;16677;52.224;7.484;2024-01-15T06:48:48;1.70;99.90
29777;DHT22;16677;52.224;7.484;2024-01-15T06:51:15;1.60;99.90
29777;DHT22;16677;52.224;7.484;2024-01-15T06:53:42;1.60;99.90
29777;DHT22;16677;52.224;7.484;2024-01-15T06:56:09;1.70;99.90
29777;DHT22;16677;52.224;7.484;2024-01-15T06:58:36;1.70;99.90
29777;DHT22;16677;52.224;7.484;2024-01-15T07:01:03;1.70;99.90
29777;DHT22;16677;52.224;7.484;2024-01-15T07:03:31;1.70;99.90
29777;DHT22;16677;52.224;7.484;2024-01-15T07:05:58;1.70;99.90
29777;DHT22;16677;52.224;7.484;2024-01-15T07:08:25;1.80;99.90
29777;DHT22;16677;52.224;7.484;2024-01-15T07:10:52;1.80;99.90
29777;DHT22;16677;52.224;7.484;2024-01-15T07:13:19;1.80;99.90
29777;DHT22;16677;52.224;7.484;2024-01-15T07:15:46;1.80;99.90
29777;DHT22;16677;52.224;7.484;2024-01-15T07:18:13;1.80;99.90
29777;DHT22;16677;52.224;7.484;2024-01-15T07:20:40;1.80;99.90
29777;DHT22;16677;52.224;7.484;2024-01-15T07:23:07;1.80;99.90
29777;DHT22;16677;52.224;7.484;2024-01-15T07:25:34;1.80;99.90
29777;DHT22;16677;52.224;7.484;2024-01-15T07:28:00;1.80;99.90
29777;DHT22;16677;52.224;7.484;2024-01-15T07:30:27;1.80;99.90
29777;DHT22;16677;52.224;7.484;2024-01-15T07:32:54;1.60;99.90
29777;DHT22;16677;52.224;7.484;2024-01-15T07:35:21;1.60;99.90
29777;DHT22;16677;52.224;7.484;2024-01-15T07:37:48;1.60;99.90
29777;DHT22;16677;52.224;7.484;2024-01-15T07:40:15;1.60;99.90
29777;DHT22;16677;52.224;7.484;2024-01-15T07:42:42;1.50;99.90
29777;DHT22;16677;52.224;7.484;2024-01-15T07:45:10;1.50;99.90
29777;DHT22;16677;52.224;7.484;2024-01-15T07:47:37;1.60;99.90
29777;DHT22;16677;52.224;7.484;2024-01-15T07:50:04;1.60;99.90
29777;DHT22;16677;52.224;7.484;2024-01-15T07:52:32;1.60;99.90
29777;DHT22;16677;52.224;7.484;2024-01-15T07:54:58;1.60;99.90
29777;DHT22;16677;52.224;7.484;2024-01-15T07:57:30;1.70;99.90
29777;DHT22;16677;52.224;7.484;2024-01-15T07:59:57;1.70;99.90
29777;DHT22;16677;52.224;7.484;2024-01-15T08:02:24;1.70;99.90
29777;DHT22;16677;52.224;7.484;2024-01-15T08:04:51;1.80;99.90
29777;DHT22;16677;52.224;7.484;2024-01-15T08:07:18;1.70;99.90
29777;DHT22;16677;52.224;7.484;2024-01-15T08:09:45;1.70;99.90
29777;DHT22;16677;52.224;7.484;2024-01-15T08:12:14;1.70;99.90
29777;DHT22;16677;52.224;7.484;2024-01-15T08:14:41;1.80;99.90
29777;DHT22;16677;52.224;7.484;2024-01-15T08:17:08;1.80;99.90
29777;DHT22;16677;52.224;7.484;2024-01-15T08:19:35;1.80;99.90
29777;DHT22;16677;52.224;7.484;2024-01-15T08:22:02;1.80;99.90
29777;DHT22;16677;52.224;7.484;2024-01-15T08:24:29;1.80;99.90
29777;DHT22;16677;52.224;7.484;2024-01-15T08:26:55;1.70;99.90
29777;DHT22;16677;52.224;7.484;2024-01-15T08:29:23;1.70;99.90
29777;DHT22;16677;52.224;7.484;2024-01-15T08:31:52;1.80;99.90
29777;DHT22;16677;52.224;7.484;2024-01-15T08:34:19;1.80;99.90
29777;DHT22;16677;52.224;7.484;2024-01-15T08:36:46;1.80;99.90
29777;DHT22;16677;52.224;7.484;2024-01-15T08:39:13;1.80;99.90
29777;DHT22;16677;52.224;7.484;2024-01-15T08:41:40;1.70;99.90
29777;DHT22;16677;52.224;7.484;2024-01-15T08:44:07;1.70;99.90
29777;DHT22;16677;52.224;7.484;2024-01-15T08:46:33;1.70;99.90
29777;DHT22;16677;52.224;7.484;2024-01-15T08:49:00;1.60;99.90
29777;DHT22;16677;52.224;7.484;2024-01-15T08:51:27;1.60;99.90
29777;DHT22;16677;52.224;7.484;2024-01-15T08:53:55;1.60;99.90
29777;DHT22;16677;52.224;7.484;2024-01-15T08:56:22;1.60;99.90
29777;DHT22;16677;52.224;7.484;2024-01-15T08:58:49;1.80;99.90
29777;DHT22;16677;52.224;7.484;2024-01-15T09:01:16;1.70;99.90
29777;DHT22;16677;52.224;7.484;2024-01-15T09:03:43;1.70;99.90
29777;DHT22;16677;52.224;7.484;2024-01-15T09:06:10;1.70;99.90
29777;DHT22;16677;52.224;7.484;2024-01-15T09:08:37;1.80;99.90
29777;DHT22;16677;52.224;7.484;2024-01-15T09:11:04;1.80;99.90
29777;DHT22;16677;52.224;7.484;2024-01-15T09:13:31;1.80;99.90
29777;DHT22;16677;52.224;7.484;2024-01-15T09:15:58;1.80;99.90
29777;DHT22;16677;52.224;7.484;2024-01-15T09:18:25;2.00;99.90
29777;DHT22;16677;52.224;7.484;2024-01-15T09:20:52;2.00;99.90
29777;DHT22;16677;52.224;7.484;2024-01-15T09:23:19;2.00;99.90
29777;DHT22;16677;52.224;7.484;2024-01-15T09:25:46;2.00;95.90
29777;DHT22;16677;52.224;7.484;2024-01-15T09:28:14;2.00;99.90
29777;DHT22;16677;52.224;7.484;2024-01-15T09:30:41;2.00;99.90
29777;DHT22;16677;52.224;7.484;2024-01-15T09:33:08;2.00;99.90
29777;DHT22;16677;52.224;7.484;2024-01-15T09:35:36;2.20;99.90
29777;DHT22;16677;52.224;7.484;2024-01-15T09:38:03;2.10;49.20
29777;DHT22;16677;52.224;7.484;2024-01-15T09:40:31;2.00;80.10
29777;DHT22;16677;52.224;7.484;2024-01-15T09:42:58;2.10;59.70
29777;DHT22;16677;52.224;7.484;2024-01-15T09:45:26;2.20;49.30
29777;DHT22;16677;52.224;7.484;2024-01-15T09:47:54;2.20;21.20
29777;DHT22;16677;52.224;7.484;2024-01-15T09:50:21;2.20;66.10
29777;DHT22;16677;52.224;7.484;2024-01-15T09:52:48;2.20;14.80
29777;DHT22;16677;52.224;7.484;2024-01-15T09:55:15;2.20;25.30
29777;DHT22;16677;52.224;7.484;2024-01-15T09:57:43;2.30;12.40
29777;DHT22;16677;52.224;7.484;2024-01-15T10:00:12;2.20;7.00
29777;DHT22;16677;52.224;7.484;2024-01-15T10:02:39;2.30;13.30
29777;DHT22;16677;52.224;7.484;2024-01-15T10:05:07;2.30;2.20
29777;DHT22;16677;52.224;7.484;2024-01-15T10:07:35;2.10;8.10
29777;DHT22;16677;52.224;7.484;2024-01-15T10:10:02;2.20;19.00
29777;DHT22;16677;52.224;7.484;2024-01-15T10:12:30;2.20;33.00
29777;DHT22;16677;52.224;7.484;2024-01-15T10:14:57;2.30;10.60
29777;DHT22;16677;52.224;7.484;2024-01-15T10:17:24;2.40;1.00
29777;DHT22;16677;52.224;7.484;2024-01-15T10:19:53;2.30;1.00
29777;DHT22;16677;52.224;7.484;2024-01-15T10:22:20;2.40;3.20
29777;DHT22;16677;52.224;7.484;2024-01-15T10:24:47;2.60;1.00
29777;DHT22;16677;52.224;7.484;2024-01-15T10:27:15;2.50;1.00
29777;DHT22;16677;52.224;7.484;2024-01-15T10:29:42;2.40;1.00
29777;DHT22;16677;52.224;7.484;2024-01-15T10:32:10;2.50;1.00
29777;DHT22;16677;52.224;7.484;2024-01-15T10:34:38;2.50;1.00
29777;DHT22;16677;52.224;7.484;2024-01-15T10:37:07;2.60;1.00
29777;DHT22;16677;52.224;7.484;2024-01-15T10:39:34;2.60;1.00
29777;DHT22;16677;52.224;7.484;2024-01-15T10:42:01;2.50;1.00
29777;DHT22;16677;52.224;7.484;2024-01-15T10:44:28;2.60;1.00
29777;DHT22;16677;52.224;7.484;2024-01-15T10:46:55;2.40;1.00
29777;DHT22;16677;52.224;7.484;2024-01-15T10:49:23;2.50;1.00
29777;DHT22;16677;52.224;7.484;2024-01-15T10:51:57;2.40;1.00
29777;DHT22;16677;52.224;7.484;2024-01-15T10:54:23;2.50;1.00
29777;DHT22;16677;52.224;7.484;2024-01-15T10:56:51;2.60;1.00
29777;DHT22;16677;52.224;7.484;2024-01-15T10:59:19;2.50;1.00
29777;DHT22;16677;52.224;7.484;2024-01-15T11:01:49;2.50;1.00
29777;DHT22;16677;52.224;7.484;2024-01-15T11:04:17;2.30;1.00
29777;DHT22;16677;52.224;7.484;2024-01-15T11:06:45;2.40;1.00
29777;DHT22;16677;52.224;7.484;2024-01-15T11:09:12;2.40;1.00
29777;DHT22;16677;52.224;7.484;2024-01-15T11:11:46;2.50;1.00
29777;DHT22;16677;52.224;7.484;2024-01-15T11:17:00;2.60;1.00
29777;DHT22;16677;52.224;7.484;2024-01-15T11:19:36;2.70;1.00
29777;DHT22;16677;52.224;7.484;2024-01-15T11:22:04;2.60;1.00
29777;DHT22;16677;52.224;7.484;2024-01-15T11:24:37;2.60;1.00
29777;DHT22;16677;52.224;7.484;2024-01-15T11:27:05;2.70;1.00
29777;DHT22;16677;52.224;7.484;2024-01-15T11:29:33;2.70;1.00
29777;DHT22;16677;52.224;7.484;2024-01-15T11:32:04;2.70;1.00
29777;DHT22;16677;52.224;7.484;2024-01-15T11:37:18;2.80;1.00
29777;DHT22;16677;52.224;7.484;2024-01-15T11:39:45;2.80;1.00
29777;DHT22;16677;52.224;7.484;2024-01-15T11:42:13;3.00;1.00
29777;DHT22;16677;52.224;7.484;2024-01-15T11:44:41;2.80;1.00
29777;DHT22;16677;52.224;7.484;2024-01-15T11:47:08;2.80;1.00
29777;DHT22;16677;52.224;7.484;2024-01-15T11:52:30;2.80;1.00
29777;DHT22;16677;52.224;7.484;2024-01-15T11:57:47;3.00;1.00
29777;DHT22;16677;52.224;7.484;2024-01-15T12:00:16;3.00;1.00
29777;DHT22;16677;52.224;7.484;2024-01-15T12:02:44;2.90;1.00
29777;DHT22;16677;52.224;7.484;2024-01-15T12:05:12;3.00;1.00
29777;DHT22;16677;52.224;7.484;2024-01-15T12:07:40;2.90;1.00
29777;DHT22;16677;52.224;7.484;2024-01-15T12:10:10;2.80;1.00
29777;DHT22;16677;52.224;7.484;2024-01-15T12:12:57;2.60;1.00
29777;DHT22;16677;52.224;7.484;2024-01-15T12:15:26;2.60;1.00
29777;DHT22;16677;52.224;7.484;2024-01-15T12:17:54;2.60;1.00
29777;DHT22;16677;52.224;7.484;2024-01-15T12:20:23;2.60;1.00
29777;DHT22;16677;52.224;7.484;2024-01-15T12:22:50;2.70;1.00
29777;DHT22;16677;52.224;7.484;2024-01-15T12:25:26;2.80;1.00
29777;DHT22;16677;52.224;7.484;2024-01-15T12:27:53;2.90;1.00
29777;DHT22;16677;52.224;7.484;2024-01-15T12:30:20;3.10;1.00
29777;DHT22;16677;52.224;7.484;2024-01-15T12:32:48;3.10;1.00
29777;DHT22;16677;52.224;7.484;2024-01-15T12:35:15;2.90;1.00
29777;DHT22;16677;52.224;7.484;2024-01-15T12:37:42;3.00;1.00
29777;DHT22;16677;52.224;7.484;2024-01-15T12:40:10;2.90;1.00
29777;DHT22;16677;52.224;7.484;2024-01-15T12:42:37;2.80;1.00
29777;DHT22;16677;52.224;7.484;2024-01-15T12:45:06;2.70;1.00
29777;DHT22;16677;52.224;7.484;2024-01-15T12:47:33;2.50;84.70
29777;DHT22;16677;52.224;7.484;2024-01-15T12:50:00;2.50;99.90
29777;DHT22;16677;52.224;7.484;2024-01-15T12:52:35;2.40;99.90
29777;DHT22;16677;52.224;7.484;2024-01-15T12:55:05;2.30;99.90
29777;DHT22;16677;52.224;7.484;2024-01-15T12:57:32;2.40;99.90
29777;DHT22;16677;52.224;7.484;2024-01-15T12:59:59;2.40;99.90
29777;DHT22;16677;52.224;7.484;2024-01-15T13:02:26;2.40;99.90
29777;DHT22;16677;52.224;7.484;2024-01-15T13:04:53;2.40;99.90
29777;DHT22;16677;52.224;7.484;2024-01-15T13:07:21;2.50;99.90
29777;DHT22;16677;52.224;7.484;2024-01-15T13:09:48;2.50;99.90
29777;DHT22;16677;52.224;7.484;2024-01-15T13:12:19;2.50;99.90
29777;DHT22;16677;52.224;7.484;2024-01-15T13:14:46;2.50;99.90
29777;DHT22;16677;52.224;7.484;2024-01-15T13:17:14;2.50;99.90
29777;DHT22;16677;52.224;7.484;2024-01-15T13:19:41;2.50;96.30
29777;DHT22;16677;52.224;7.484;2024-01-15T13:22:08;2.50;99.90
29777;DHT22;16677;52.224;7.484;2024-01-15T13:24:35;2.60;76.30
29777;DHT22;16677;52.224;7.484;2024-01-15T13:27:03;2.60;22.60
29777;DHT22;16677;52.224;7.484;2024-01-15T13:29:33;2.60;1.70
29777;DHT22;16677;52.224;7.484;2024-01-15T13:32:00;2.60;1.00
29777;DHT22;16677;52.224;7.484;2024-01-15T13:34:27;2.60;1.00
29777;DHT22;16677;52.224;7.484;2024-01-15T13:36:54;2.70;1.00
29777;DHT22;16677;52.224;7.484;2024-01-15T13:39:24;2.60;1.00
29777;DHT22;16677;52.224;7.484;2024-01-15T13:41:51;2.60;4.60
29777;DHT22;16677;52.224;7.484;2024-01-15T13:44:18;2.50;95.30
29777;DHT22;16677;52.224;7.484;2024-01-15T13:46:45;2.50;92.40
29777;DHT22;16677;52.224;7.484;2024-01-15T13:49:12;2.50;89.50
29777;DHT22;16677;52.224;7.484;2024-01-15T13:51:38;2.50;99.90
29777;DHT22;16677;52.224;7.484;2024-01-15T13:54:06;2.40;94.00
29777;DHT22;16677;52.224;7.484;2024-01-15T13:56:34;2.40;99.90
29777;DHT22;16677;52.224;7.484;2024-01-15T13:59:02;2.50;99.90
29777;DHT22;16677;52.224;7.484;2024-01-15T14:01:30;2.30;94.20
29777;DHT22;16677;52.224;7.484;2024-01-15T14:03:58;2.20;65.80
29777;DHT22;16677;52.224;7.484;2024-01-15T14:06:25;2.20;78.40
29777;DHT22;16677;52.224;7.484;2024-01-15T14:08:52;2.20;89.40
29777;DHT22;16677;52.224;7.484;2024-01-15T14:11:18;2.10;57.50
29777;DHT22;16677;52.224;7.484;2024-01-15T14:13:45;2.20;19.10
29777;DHT22;16677;52.224;7.484;2024-01-15T14:16:16;2.20;49.30
29777;DHT22;16677;52.224;7.484;2024-01-15T14:18:51;2.10;32.70
29777;DHT22;16677;52.224;7.484;2024-01-15T14:21:21;2.10;30.80
29777;DHT22;16677;52.224;7.484;2024-01-15T14:23:48;2.20;45.40
29777;DHT22;16677;52.224;7.484;2024-01-15T14:26:18;2.10;1.00
29777;DHT22;16677;52.224;7.484;2024-01-15T14:28:47;2.10;18.50
29777;DHT22;16677;52.224;7.484;2024-01-15T14:34:45;2.10;15.70
29777;DHT22;16677;52.224;7.484;2024-01-15T14:43:28;2.10;1.00
29777;DHT22;16677;52.224;7.484;2024-01-15T14:51:52;2.10;1.00
29777;DHT22;16677;52.224;7.484;2024-01-15T14:54:39;2.10;1.00
29777;DHT22;16677;52.224;7.484;2024-01-15T14:57:18;2.20;1.00
29777;DHT22;16677;52.224;7.484;2024-01-15T14:59:48;2.20;1.00
29777;DHT22;16677;52.224;7.484;2024-01-15T15:02:21;2.20;1.00
29777;DHT22;16677;52.224;7.484;2024-01-15T15:05:04;2.20;5.30
29777;DHT22;16677;52.224;7.484;2024-01-15T15:07:33;2.10;50.30
29777;DHT22;16677;52.224;7.484;2024-01-15T15:10:08;2.10;45.50
29777;DHT22;16677;52.224;7.484;2024-01-15T15:12:41;2.10;65.10
29777;DHT22;16677;52.224;7.484;2024-01-15T15:15:22;2.10;46.70
29777;DHT22;16677;52.224;7.484;2024-01-15T15:17:50;2.10;49.40
29777;DHT22;16677;52.224;7.484;2024-01-15T15:20:18;2.10;30.30
29777;DHT22;16677;52.224;7.484;2024-01-15T15:23:08;2.10;48.60
29777;DHT22;16677;52.224;7.484;2024-01-15T15:25:39;2.10;34.60
29777;DHT22;16677;52.224;7.484;2024-01-15T15:28:11;2.30;1.00
29777;DHT22;16677;52.224;7.484;2024-01-15T15:30:40;2.10;1.00
29777;DHT22;16677;52.224;7.484;2024-01-15T15:33:07;2.00;1.00
29777;DHT22;16677;52.224;7.484;2024-01-15T15:35:39;2.10;1.00
29777;DHT22;16677;52.224;7.484;2024-01-15T15:38:06;2.00;1.00
29777;DHT22;16677;52.224;7.484;2024-01-15T15:40:33;1.90;1.00
29777;DHT22;16677;52.224;7.484;2024-01-15T15:43:10;1.90;1.00
29777;DHT22;16677;52.224;7.484;2024-01-15T15:45:48;1.70;1.00
29777;DHT22;16677;52.224;7.484;2024-01-15T15:48:41;1.80;1.00
29777;DHT22;16677;52.224;7.484;2024-01-15T15:51:20;1.80;1.00
29777;DHT22;16677;52.224;7.484;2024-01-15T15:54:10;1.70;9.50
29777;DHT22;16677;52.224;7.484;2024-01-15T15:57:02;1.70;30.20
29777;DHT22;16677;52.224;7.484;2024-01-15T16:02:33;1.70;91.80
29777;DHT22;16677;52.224;7.484;2024-01-15T16:05:13;1.70;99.90
29777;DHT22;16677;52.224;7.484;2024-01-15T16:08:03;1.80;99.90
29777;DHT22;16677;52.224;7.484;2024-01-15T16:10:34;1.80;99.90
29777;DHT22;16677;52.224;7.484;2024-01-15T16:16:00;1.80;99.90
29777;DHT22;16677;52.224;7.484;2024-01-15T16:18:50;1.80;99.90
29777;DHT22;16677;52.224;7.484;2024-01-15T16:21:39;1.80;91.80
29777;DHT22;16677;52.224;7.484;2024-01-15T16:27:42;1.80;21.70
29777;DHT22;16677;52.224;7.484;2024-01-15T16:30:12;1.80;1.00
29777;DHT22;16677;52.224;7.484;2024-01-15T16:32:57;1.90;1.00
29777;DHT22;16677;52.224;7.484;2024-01-15T16:35:32;2.00;1.00